createdAt,value
2022-08-09T00:01:57.545Z,23.5
2022-08-09T00:22:36.271Z,23.4
2022-08-09T00:44:08.638Z,23.3
2022-08-09T01:01:52.654Z,23.3
2022-08-09T01:21:51.057Z,23.2
2022-08-09T01:41:53.907Z,23.1
2022-08-09T02:01:57.818Z,23.1
2022-08-09T02:22:10.434Z,23
2022-08-09T02:41:48.335Z,22.9
2022-08-09T03:02:16.729Z,22.9
2022-08-09T03:21:48.922Z,22.8
2022-08-09T03:41:48.711Z,22.7
2022-08-09T04:42:33.207Z,22.4
2022-08-09T05:01:48.353Z,22.1
2022-08-09T05:21:52.375Z,22.1
2022-08-09T05:41:49.400Z,22.3
2022-08-09T06:22:14.864Z,22.4
2022-08-09T06:42:11.226Z,22.4
2022-08-09T07:02:09.322Z,22.5
2022-08-09T07:21:56.102Z,22.5
2022-08-09T07:42:44.772Z,22.6
2022-08-09T08:02:42.315Z,22.6
2022-08-09T08:21:52.524Z,22.6
2022-08-09T09:01:52.630Z,22.7
2022-08-09T09:42:14.520Z,22.9
2022-08-09T10:42:00.936Z,23
2022-08-09T11:04:55.803Z,23.1
2022-08-09T12:21:48.879Z,23.4
2022-08-09T13:01:48.891Z,23.5
2022-08-09T13:25:56.801Z,23.6
2022-08-09T13:43:35.716Z,23.7
2022-08-09T14:02:25.953Z,23.7
2022-08-09T14:22:12.462Z,23.8
2022-08-09T14:43:12.609Z,24
2022-08-09T15:02:15.186Z,24.2
2022-08-09T15:23:55.800Z,24.5
2022-08-09T15:42:15.494Z,24.7
2022-08-09T16:01:50.220Z,24.9
2022-08-09T16:22:14.890Z,25.1
2022-08-09T16:42:03.420Z,25.3
2022-08-09T17:02:23.187Z,25.3
2022-08-09T17:22:03.860Z,25.3
2022-08-09T18:02:26.084Z,25.2
2022-08-09T18:22:33.809Z,25
2022-08-09T18:41:52.438Z,24.8
2022-08-09T19:02:54.317Z,24.6
2022-08-09T19:42:14.380Z,24.3
2022-08-09T20:01:53.342Z,24
2022-08-09T20:22:33.586Z,23.8
2022-08-09T20:42:13.012Z,23.6
2022-08-09T21:02:59.799Z,23.9
2022-08-09T21:21:56.035Z,24
2022-08-09T22:02:04.492Z,24
2022-08-09T22:21:50.479Z,23.7
2022-08-09T22:41:47.403Z,23.7
2022-08-09T23:01:48.693Z,23.7
2022-08-09T23:21:47.493Z,23.7
2022-08-09T23:41:47.343Z,23.7
